createdAt,value
2022-09-13T00:00:51.050Z,96518.91
2022-09-13T00:05:42.877Z,96513.91
2022-09-13T00:10:37.560Z,96516.97
2022-09-13T00:15:30.108Z,96507.91
2022-09-13T00:20:22.010Z,96502.56
2022-09-13T00:25:13.745Z,96498.97
2022-09-13T00:30:08.399Z,96492.84
2022-09-13T00:35:00.174Z,96487.41
2022-09-13T00:39:51.868Z,96486.38
2022-09-13T00:45:12.168Z,96480.50
2022-09-13T00:50:24.541Z,96480.25
2022-09-13T00:55:35.112Z,96491.03
2022-09-13T01:00:26.948Z,96499.41
2022-09-13T01:05:24.132Z,96493.72
2022-09-13T01:10:24.088Z,96500.59
2022-09-13T01:15:15.970Z,96487.56
2022-09-13T01:20:11.387Z,96478.38
2022-09-13T01:25:38.108Z,96475.31
2022-09-13T01:30:40.453Z,96470.13
2022-09-13T01:35:49.557Z,96474.63
2022-09-13T01:41:18.028Z,96475.91
2022-09-13T01:46:16.976Z,96478.94
2022-09-13T01:51:23.254Z,96479.34
2022-09-13T01:56:33.017Z,96472.00
2022-09-13T02:01:39.128Z,96484.47
2022-09-13T02:06:40.371Z,96482.59
2022-09-13T02:11:36.818Z,96488.53
2022-09-13T02:16:45.059Z,96479.34
2022-09-13T02:21:45.736Z,96483.19
2022-09-13T02:26:41.713Z,96482.06
2022-09-13T02:31:52.717Z,96488.56
2022-09-13T02:36:48.688Z,96487.94
2022-09-13T02:42:04.413Z,96488.03
2022-09-13T02:47:12.095Z,96485.56
2022-09-13T02:52:14.040Z,96485.88
2022-09-13T02:57:18.543Z,96490.16
2022-09-13T03:02:16.492Z,96502.88
2022-09-13T03:07:15.735Z,96501.72
2022-09-13T03:12:10.488Z,96501.91
2022-09-13T03:17:35.949Z,96511.44
2022-09-13T03:23:17.834Z,96506.69
2022-09-13T03:28:43.010Z,96502.56
2022-09-13T03:34:13.845Z,96493.75
2022-09-13T03:39:51.738Z,96494.69
2022-09-13T03:44:48.504Z,96498.25
2022-09-13T03:49:41.240Z,96503.78
2022-09-13T03:54:37.456Z,96502.19
2022-09-13T03:59:29.138Z,96506.59
2022-09-13T04:04:21.228Z,96515.69
2022-09-13T04:09:14.116Z,96498.72
2022-09-13T04:14:06.350Z,96504.81
2022-09-13T04:18:59.258Z,96505.84
2022-09-13T04:23:51.254Z,96516.38
2022-09-13T04:38:57.206Z,96512.25
2022-09-13T04:43:51.214Z,96511.97
2022-09-13T04:53:59.972Z,96516.84
2022-09-13T04:58:53.168Z,96520.91
2022-09-13T05:03:45.767Z,96514.75
2022-09-13T05:08:38.355Z,96534.84
2022-09-13T05:13:31.409Z,96529.03
2022-09-13T05:18:27.500Z,96527.91
2022-09-13T05:28:27.572Z,96514.19
2022-09-13T05:44:12.598Z,96504.28
2022-09-13T05:49:08.052Z,96504.72
2022-09-13T05:54:00.021Z,96508.09
2022-09-13T05:58:53.595Z,96512.38
2022-09-13T06:03:49.798Z,96512.28
2022-09-13T06:08:41.739Z,96505.34
2022-09-13T06:13:34.938Z,96508.94
2022-09-13T06:18:27.689Z,96500.22
2022-09-13T06:23:19.542Z,96491.03
2022-09-13T06:28:11.298Z,96494.47
2022-09-13T06:33:03.640Z,96486.97
2022-09-13T06:38:00.158Z,96491.22
2022-09-13T06:53:03.983Z,96474.88
2022-09-13T06:57:56.124Z,96479.06
2022-09-13T07:03:01.001Z,96473.03
2022-09-13T07:28:49.609Z,96442.28
2022-09-13T07:33:43.876Z,96443.94
2022-09-13T07:38:37.545Z,96455.75
2022-09-13T07:43:29.713Z,96444.84
2022-09-13T07:48:25.282Z,96456.03
2022-09-13T07:53:19.165Z,96461.38
2022-09-13T07:58:12.477Z,96457.03
2022-09-13T08:03:04.342Z,96453.97
2022-09-13T08:07:56.230Z,96447.44
2022-09-13T08:12:49.428Z,96446.91
2022-09-13T08:17:41.143Z,96445.00
2022-09-13T08:22:32.893Z,96443.69
2022-09-13T08:27:25.897Z,96425.91
2022-09-13T08:32:18.662Z,96430.53
2022-09-13T08:37:11.682Z,96439.94
2022-09-13T08:47:59.616Z,96458.69
2022-09-13T08:53:09.379Z,96444.94
2022-09-13T08:58:23.633Z,96448.81
2022-09-13T09:09:14.903Z,96442.50
2022-09-13T09:56:56.693Z,96415.00
2022-09-13T10:23:33.835Z,96380.69
2022-09-13T10:33:41.193Z,96370.91
2022-09-13T10:38:48.605Z,96363.47
2022-09-13T10:43:40.919Z,96372.16
2022-09-13T10:48:48.202Z,96351.22
2022-09-13T10:53:42.940Z,96343.34
2022-09-13T10:58:35.038Z,96336.34
2022-09-13T11:03:33.225Z,96334.84
2022-09-13T11:08:54.800Z,96339.13
2022-09-13T11:13:57.897Z,96336.63
2022-09-13T11:19:12.074Z,96336.84
2022-09-13T11:35:53.882Z,96335.63
2022-09-13T11:41:52.884Z,96333.19
2022-09-13T11:58:00.933Z,96306.34
2022-09-13T12:19:16.970Z,96258.59
2022-09-13T12:41:16.784Z,96251.03
2022-09-13T12:46:11.433Z,96255.44
2022-09-13T12:51:34.988Z,96251.97
2022-09-13T12:57:04.645Z,96254.88
2022-09-13T13:01:58.356Z,96248.56
2022-09-13T13:07:16.825Z,96244.78
2022-09-13T13:12:27.982Z,96241.38
2022-09-13T13:17:45.442Z,96241.78
2022-09-13T13:22:44.071Z,96230.69
2022-09-13T13:27:47.651Z,96232.25
2022-09-13T13:33:15.156Z,96223.69
2022-09-13T13:38:42.446Z,96228.97
2022-09-13T13:43:35.156Z,96216.50
2022-09-13T13:48:42.597Z,96205.84
2022-09-13T13:53:36.840Z,96205.91
2022-09-13T13:59:07.506Z,96212.06
2022-09-13T14:04:56.145Z,96203.69
2022-09-13T14:10:14.334Z,96204.59
2022-09-13T14:15:47.878Z,96208.47
2022-09-13T14:21:04.333Z,96198.69
2022-09-13T14:26:01.353Z,96204.50
2022-09-13T14:30:59.603Z,96202.50
2022-09-13T14:36:21.673Z,96196.25
2022-09-13T14:41:21.381Z,96191.31
2022-09-13T14:46:31.828Z,96187.41
2022-09-13T18:03:21.915Z,96068.72
2022-09-13T18:13:24.322Z,96067.09
2022-09-13T19:04:43.537Z,96104.56
2022-09-13T19:25:08.321Z,96107.41
2022-09-13T19:30:01.233Z,96112.88
2022-09-13T19:50:24.693Z,96112.00
2022-09-13T20:36:51.821Z,96104.91
2022-09-13T20:41:46.216Z,96102.25
2022-09-13T21:02:00.117Z,96083.59
2022-09-13T21:07:14.633Z,96083.09
2022-09-13T21:22:28.857Z,96099.34
2022-09-13T21:37:34.102Z,96118.81
2022-09-13T21:52:39.606Z,96092.72
2022-09-13T22:02:37.335Z,96088.09
2022-09-13T22:07:29.526Z,96084.94
2022-09-13T22:17:41.754Z,96094.69
2022-09-13T22:22:35.095Z,96079.84
2022-09-13T22:32:33.767Z,96075.97
2022-09-13T22:37:27.869Z,96081.00
2022-09-13T22:42:20.496Z,96084.47
2022-09-13T22:47:14.492Z,96077.69
2022-09-13T22:52:07.202Z,96078.28
2022-09-13T22:56:59.522Z,96069.50
2022-09-13T23:01:51.387Z,96085.00
2022-09-13T23:06:51.908Z,96079.97
2022-09-13T23:11:45.070Z,96071.28
2022-09-13T23:16:44.087Z,96082.84
2022-09-13T23:26:46.000Z,96084.13
2022-09-13T23:41:52.999Z,96067.59
2022-09-13T23:46:45.120Z,96065.91
2022-09-13T23:51:38.321Z,96065.28
2022-09-13T23:56:32.091Z,96067.66
